Wetterdaten: Sonntag, 12.10.2014
Datum Zeit Temp. A. Feuchte A. Luftdruck Regen Wind Richtung Richtung Sonnenschein ET UV Solar Taupunkt Windchill Windben Empfang
12.10.2014 00:00 13,6 C 86 % 1014,7 hPa 0,0 l/m 0,0 km/h (0 Bft) SO 128 0 min 0,000 mm 0,0 UV-I 0 W/m 11,3 C 13,6 C 0,0 km/h (0 Bft) 0,00 %
12.10.2014 00:15 13,4 C 86 % 1014,7 hPa 0,0 l/m 0,0 km/h (0 Bft) SO 129 0 min 0,000 mm 0,0 UV-I 0 W/m 11,1 C 13,4 C 0,0 km/h (0 Bft) 0,00 %
12.10.2014 00:30 13,3 C 86 % 1014,7 hPa 0,0 l/m 0,0 km/h (0 Bft) SO 129 0 min 0,000 mm 0,0 UV-I 0 W/m 11,0 C 13,3 C 0,0 km/h (0 Bft) 0,00 %
12.10.2014 00:45 13,2 C 86 % 1014,7 hPa 0,0 l/m 0,0 km/h (0 Bft) SO 140 0 min 0,000 mm 0,0 UV-I 0 W/m 10,9 C 13,2 C 0,0 km/h (0 Bft) 0,00 %
12.10.2014 01:00 13,2 C 86 % 1014,8 hPa 0,0 l/m 0,0 km/h (0 Bft) SW 222 0 min 0,000 mm 0,0 UV-I 0 W/m 10,9 C 13,2 C 0,0 km/h (0 Bft) 0,00 %
12.10.2014 01:15 13,0 C 86 % 1014,5 hPa 0,0 l/m 0,0 km/h (0 Bft) SW 221 0 min 0,000 mm 0,0 UV-I 0 W/m 10,7 C 13,0 C 0,0 km/h (0 Bft) 0,00 %
12.10.2014 01:30 12,8 C 86 % 1014,7 hPa 0,0 l/m 0,0 km/h (0 Bft) SW 221 0 min 0,000 mm 0,0 UV-I 0 W/m 10,5 C 12,8 C 0,0 km/h (0 Bft) 0,00 %
12.10.2014 01:45 12,6 C 86 % 1014,8 hPa 0,0 l/m 0,0 km/h (0 Bft) S-SO 168 0 min 0,000 mm 0,0 UV-I 0 W/m 10,3 C 12,6 C 0,0 km/h (0 Bft) 0,00 %
12.10.2014 02:00 12,5 C 87 % 1014,8 hPa 0,0 l/m 0,0 km/h (0 Bft) S 169 0 min 0,000 mm 0,0 UV-I 0 W/m 10,4 C 12,5 C 0,0 km/h (0 Bft) 0,00 %
12.10.2014 02:15 12,2 C 87 % 1014,9 hPa 0,3 l/m 0,0 km/h (0 Bft) S-SW 196 0 min 0,000 mm 0,0 UV-I 0 W/m 10,1 C 12,2 C 0,0 km/h (0 Bft) 0,00 %
12.10.2014 02:30 11,8 C 87 % 1014,9 hPa 0,0 l/m 0,0 km/h (0 Bft) S-SW 195 0 min 0,000 mm 0,0 UV-I 0 W/m 9,7 C 11,8 C 0,0 km/h (0 Bft) 0,00 %
12.10.2014 02:45 11,4 C 87 % 1015,0 hPa 0,0 l/m 0,0 km/h (0 Bft) S-SW 195 0 min 0,000 mm 0,0 UV-I 0 W/m 9,3 C 11,4 C 0,0 km/h (0 Bft) 0,00 %
12.10.2014 03:00 11,2 C 87 % 1015,1 hPa 0,0 l/m 0,0 km/h (0 Bft) S 176 0 min 0,000 mm 0,0 UV-I 0 W/m 9,1 C 11,2 C 0,0 km/h (0 Bft) 0,00 %
12.10.2014 03:15 11,1 C 87 % 1014,8 hPa 0,0 l/m 0,0 km/h (0 Bft) SO 141 0 min 0,000 mm 0,0 UV-I 0 W/m 9,0 C 11,1 C 0,0 km/h (0 Bft) 0,00 %
12.10.2014 03:30 11,2 C 87 % 1014,9 hPa 0,0 l/m 0,0 km/h (0 Bft) SO 129 0 min 0,000 mm 0,0 UV-I 0 W/m 9,1 C 11,2 C 0,0 km/h (0 Bft) 0,00 %
12.10.2014 03:45 11,0 C 87 % 1014,9 hPa 0,0 l/m 0,0 km/h (0 Bft) SO 129 0 min 0,000 mm 0,0 UV-I 0 W/m 8,9 C 11,0 C 0,0 km/h (0 Bft) 0,00 %
12.10.2014 04:00 10,6 C 87 % 1014,8 hPa 0,0 l/m 0,0 km/h (0 Bft) W-SW 252 0 min 0,000 mm 0,0 UV-I 0 W/m 8,5 C 10,6 C 0,0 km/h (0 Bft) 0,00 %
12.10.2014 04:15 10,3 C 88 % 1014,9 hPa 0,0 l/m 0,0 km/h (0 Bft) S-SO 156 0 min 0,000 mm 0,0 UV-I 0 W/m 8,4 C 10,3 C 0,0 km/h (0 Bft) 0,00 %
12.10.2014 04:30 10,2 C 88 % 1015,1 hPa 0,0 l/m 0,0 km/h (0 Bft) S-SO 156 0 min 0,000 mm 0,0 UV-I 0 W/m 8,3 C 10,2 C 0,0 km/h (0 Bft) 0,00 %
12.10.2014 04:45 10,2 C 88 % 1015,3 hPa 0,0 l/m 0,0 km/h (0 Bft) S 175 0 min 0,000 mm 0,0 UV-I 0 W/m 8,3 C 10,2 C 0,0 km/h (0 Bft) 0,00 %
12.10.2014 05:00 10,3 C 88 % 1015,2 hPa 0,0 l/m 0,0 km/h (0 Bft) S 175 0 min 0,000 mm 0,0 UV-I 0 W/m 8,4 C 10,3 C 0,0 km/h (0 Bft) 0,00 %
12.10.2014 05:15 10,3 C 87 % 1015,2 hPa 0,0 l/m 0,0 km/h (0 Bft) S 174 0 min 0,000 mm 0,0 UV-I 0 W/m 8,2 C 10,3 C 0,0 km/h (0 Bft) 0,00 %
12.10.2014 05:30 10,5 C 87 % 1015,3 hPa 0,0 l/m 0,0 km/h (0 Bft) S 188 0 min 0,000 mm 0,0 UV-I 0 W/m 8,4 C 10,5 C 0,0 km/h (0 Bft) 0,00 %
12.10.2014 05:45 10,6 C 87 % 1015,1 hPa 0,0 l/m 0,0 km/h (0 Bft) O-SO 116 0 min 0,000 mm 0,0 UV-I 0 W/m 8,5 C 10,6 C 0,0 km/h (0 Bft) 0,00 %
12.10.2014 06:00 10,7 C 87 % 1015,1 hPa 0,0 l/m 0,0 km/h (0 Bft) O-SO 116 0 min 0,000 mm 0,0 UV-I 0 W/m 8,6 C 10,7 C 0,0 km/h (0 Bft) 0,00 %
12.10.2014 06:15 10,8 C 87 % 1015,2 hPa 0,0 l/m 0,0 km/h (0 Bft) S 178 0 min 0,000 mm 0,0 UV-I 0 W/m 8,7 C 10,8 C 0,0 km/h (0 Bft) 0,00 %
12.10.2014 06:30 11,0 C 87 % 1014,9 hPa 0,0 l/m 0,4 km/h (0 Bft) SO 129 0 min 0,000 mm 0,0 UV-I 0 W/m 8,9 C 11,0 C 4,0 km/h (1 Bft) 0,00 %
12.10.2014 06:45 11,0 C 87 % 1015,0 hPa 0,0 l/m 0,0 km/h (0 Bft) SO 142 0 min 0,000 mm 0,0 UV-I 0 W/m 8,9 C 11,0 C 0,0 km/h (0 Bft) 0,00 %
12.10.2014 07:00 11,0 C 87 % 1015,2 hPa 0,0 l/m 0,0 km/h (0 Bft) S 169 0 min 0,000 mm 0,0 UV-I 0 W/m 8,9 C 11,0 C 0,0 km/h (0 Bft) 0,00 %
12.10.2014 07:15 11,0 C 87 % 1015,3 hPa 0,0 l/m 0,0 km/h (0 Bft) S 186 0 min 0,000 mm 0,0 UV-I 0 W/m 8,9 C 11,0 C 0,0 km/h (0 Bft) 0,00 %
12.10.2014 07:30 11,1 C 87 % 1015,3 hPa 0,0 l/m 0,0 km/h (0 Bft) S 186 0 min 0,000 mm 0,0 UV-I 0 W/m 9,0 C 11,1 C 0,0 km/h (0 Bft) 0,00 %
12.10.2014 07:45 11,3 C 87 % 1015,5 hPa 0,0 l/m 0,0 km/h (0 Bft) S 186 0 min 0,000 mm 0,0 UV-I 4 W/m 9,2 C 11,3 C 0,0 km/h (0 Bft) 0,00 %
12.10.2014 08:00 11,5 C 87 % 1015,6 hPa 0,0 l/m 0,0 km/h (0 Bft) SO 127 0 min 0,000 mm 0,0 UV-I 20 W/m 9,4 C 11,5 C 0,0 km/h (0 Bft) 0,00 %
12.10.2014 08:15 11,7 C 87 % 1015,4 hPa 0,0 l/m 1,4 km/h (1 Bft) SO 145 0 min 0,000 mm 1,0 UV-I 35 W/m 9,6 C 11,7 C 4,0 km/h (1 Bft) 0,00 %
12.10.2014 08:30 11,9 C 87 % 1015,4 hPa 0,0 l/m 0,0 km/h (0 Bft) S 173 0 min 0,000 mm 1,0 UV-I 41 W/m 9,8 C 11,9 C 0,0 km/h (0 Bft) 0,00 %
12.10.2014 08:45 12,0 C 87 % 1015,4 hPa 0,0 l/m 0,0 km/h (0 Bft) S 174 0 min 0,000 mm 1,0 UV-I 44 W/m 9,9 C 12,0 C 0,0 km/h (0 Bft) 0,00 %
12.10.2014 09:00 12,2 C 87 % 1015,5 hPa 0,0 l/m 0,0 km/h (0 Bft) W-SW 256 0 min 0,000 mm 1,0 UV-I 62 W/m 10,1 C 12,2 C 0,0 km/h (0 Bft) 0,00 %
12.10.2014 09:15 12,4 C 87 % 1015,3 hPa 0,0 l/m 0,0 km/h (0 Bft) O 96 0 min 0,000 mm 1,0 UV-I 64 W/m 10,3 C 12,4 C 0,0 km/h (0 Bft) 0,00 %
12.10.2014 09:30 12,6 C 87 % 1015,1 hPa 0,0 l/m 6,5 km/h (2 Bft) O 97 0 min 0,000 mm 1,0 UV-I 74 W/m 10,5 C 12,6 C 7,9 km/h (2 Bft) 0,00 %
12.10.2014 09:45 12,6 C 87 % 1015,0 hPa 0,0 l/m 0,7 km/h (0 Bft) S 173 0 min 0,000 mm 1,0 UV-I 90 W/m 10,5 C 12,6 C 4,0 km/h (1 Bft) 0,00 %
12.10.2014 10:00 12,8 C 87 % 1015,0 hPa 0,0 l/m 2,9 km/h (1 Bft) O 91 0 min 0,000 mm 1,0 UV-I 98 W/m 10,7 C 12,8 C 4,0 km/h (1 Bft) 0,00 %
12.10.2014 10:15 12,9 C 87 % 1014,8 hPa 0,0 l/m 3,2 km/h (1 Bft) O 89 0 min 0,000 mm 1,0 UV-I 93 W/m 10,8 C 12,9 C 7,9 km/h (2 Bft) 0,00 %
12.10.2014 10:30 13,0 C 87 % 1014,6 hPa 0,0 l/m 0,0 km/h (0 Bft) N-NO 27 0 min 0,000 mm 1,0 UV-I 100 W/m 10,9 C 13,0 C 0,0 km/h (0 Bft) 0,00 %
12.10.2014 10:45 13,1 C 87 % 1014,3 hPa 0,0 l/m 0,4 km/h (0 Bft) S 183 0 min 0,000 mm 2,0 UV-I 124 W/m 11,0 C 13,1 C 4,0 km/h (1 Bft) 0,00 %
12.10.2014 11:00 13,3 C 87 % 1014,3 hPa 0,0 l/m 1,8 km/h (1 Bft) O-NO 76 0 min 0,000 mm 2,0 UV-I 113 W/m 11,2 C 13,3 C 4,0 km/h (1 Bft) 0,00 %
12.10.2014 11:15 13,5 C 87 % 1014,1 hPa 0,0 l/m 0,4 km/h (0 Bft) O 99 0 min 0,000 mm 2,0 UV-I 115 W/m 11,4 C 13,5 C 4,0 km/h (1 Bft) 0,00 %
12.10.2014 11:30 13,8 C 86 % 1014,0 hPa 0,0 l/m 4,0 km/h (1 Bft) O-SO 108 0 min 0,000 mm 2,0 UV-I 161 W/m 11,5 C 13,8 C 7,9 km/h (2 Bft) 0,00 %
12.10.2014 11:45 14,3 C 84 % 1013,7 hPa 0,0 l/m 0,0 km/h (0 Bft) W-NW 285 0 min 0,000 mm 2,0 UV-I 242 W/m 11,6 C 14,3 C 0,0 km/h (0 Bft) 0,00 %
12.10.2014 12:00 14,9 C 82 % 1013,7 hPa 0,0 l/m 2,9 km/h (1 Bft) N-NW 327 15 min 0,000 mm 3,0 UV-I 305 W/m 11,9 C 14,9 C 4,0 km/h (1 Bft) 0,00 %
12.10.2014 12:15 15,5 C 79 % 1013,4 hPa 0,0 l/m 5,4 km/h (1 Bft) SO 128 0 min 0,000 mm 3,0 UV-I 241 W/m 11,9 C 15,5 C 7,9 km/h (2 Bft) 0,00 %
12.10.2014 12:30 15,6 C 79 % 1012,6 hPa 0,0 l/m 6,8 km/h (2 Bft) O 92 0 min 0,000 mm 3,0 UV-I 217 W/m 12,0 C 15,4 C 7,9 km/h (2 Bft) 0,00 %
12.10.2014 12:45 16,2 C 78 % 1011,9 hPa 0,0 l/m 0,7 km/h (0 Bft) O-NO 59 0 min 0,000 mm 2,0 UV-I 148 W/m 12,4 C 16,2 C 4,0 km/h (1 Bft) 0,00 %
12.10.2014 13:00 16,5 C 76 % 1011,6 hPa 0,0 l/m 0,4 km/h (0 Bft) SO 143 0 min 0,000 mm 2,0 UV-I 138 W/m 12,3 C 16,5 C 4,0 km/h (1 Bft) 0,00 %
12.10.2014 13:15 16,8 C 74 % 1011,2 hPa 0,0 l/m 1,8 km/h (1 Bft) O 93 0 min 0,000 mm 2,0 UV-I 142 W/m 12,1 C 16,8 C 4,0 km/h (1 Bft) 0,00 %
12.10.2014 13:30 17,3 C 72 % 1011,0 hPa 0,0 l/m 9,0 km/h (2 Bft) O-SO 106 0 min 0,000 mm 2,0 UV-I 166 W/m 12,2 C 16,1 C 11,9 km/h (2 Bft) 0,00 %
12.10.2014 13:45 17,8 C 72 % 1010,3 hPa 0,0 l/m 9,0 km/h (2 Bft) O-SO 118 0 min 0,000 mm 2,0 UV-I 157 W/m 12,7 C 16,6 C 11,9 km/h (2 Bft) 0,00 %
12.10.2014 14:00 18,2 C 72 % 1010,1 hPa 0,0 l/m 2,9 km/h (1 Bft) O 92 15 min 0,000 mm 2,0 UV-I 344 W/m 13,1 C 18,2 C 4,0 km/h (1 Bft) 0,00 %
12.10.2014 14:15 18,5 C 71 % 1009,8 hPa 0,0 l/m 5,4 km/h (1 Bft) N-NO 31 15 min 0,000 mm 2,0 UV-I 345 W/m 13,1 C 18,5 C 7,9 km/h (2 Bft) 0,00 %
12.10.2014 14:30 18,8 C 70 % 1010,0 hPa 0,0 l/m 3,2 km/h (1 Bft) O-SO 106 15 min 0,000 mm 2,0 UV-I 299 W/m 13,2 C 18,8 C 4,0 km/h (1 Bft) 0,00 %
12.10.2014 14:45 19,3 C 66 % 1009,6 hPa 0,0 l/m 0,7 km/h (0 Bft) O 87 15 min 0,000 mm 2,0 UV-I 366 W/m 12,8 C 19,3 C 4,0 km/h (1 Bft) 0,00 %
12.10.2014 15:00 19,8 C 63 % 1009,3 hPa 0,0 l/m 1,4 km/h (1 Bft) NO 39 15 min 0,000 mm 2,0 UV-I 377 W/m 12,5 C 19,8 C 4,0 km/h (1 Bft) 0,00 %
12.10.2014 15:15 19,8 C 63 % 1009,2 hPa 0,0 l/m 2,2 km/h (1 Bft) O-NO 71 15 min 0,000 mm 2,0 UV-I 388 W/m 12,5 C 19,8 C 7,9 km/h (2 Bft) 0,00 %
12.10.2014 15:30 20,0 C 61 % 1009,1 hPa 0,0 l/m 5,4 km/h (1 Bft) O 79 0 min 0,000 mm 2,0 UV-I 147 W/m 12,2 C 20,0 C 7,9 km/h (2 Bft) 0,00 %
12.10.2014 15:45 20,1 C 60 % 1008,9 hPa 0,0 l/m 9,7 km/h (2 Bft) O-SO 109 0 min 0,000 mm 1,0 UV-I 135 W/m 12,1 C 18,8 C 15,8 km/h (3 Bft) 0,00 %
12.10.2014 16:00 20,1 C 60 % 1008,4 hPa 0,0 l/m 4,7 km/h (1 Bft) O 88 0 min 0,000 mm 1,0 UV-I 142 W/m 12,1 C 20,1 C 7,9 km/h (2 Bft) 0,00 %
12.10.2014 16:15 20,0 C 60 % 1008,6 hPa 0,0 l/m 9,0 km/h (2 Bft) O-NO 66 0 min 0,000 mm 1,0 UV-I 134 W/m 12,0 C 19,0 C 11,9 km/h (2 Bft) 0,00 %
12.10.2014 16:30 19,8 C 60 % 1008,7 hPa 0,0 l/m 5,4 km/h (1 Bft) O-SO 102 0 min 0,000 mm 1,0 UV-I 136 W/m 11,8 C 19,8 C 7,9 km/h (2 Bft) 0,00 %
12.10.2014 16:45 19,7 C 61 % 1008,8 hPa 0,0 l/m 6,5 km/h (2 Bft) O-NO 72 15 min 0,000 mm 1,0 UV-I 137 W/m 12,0 C 19,7 C 7,9 km/h (2 Bft) 0,00 %
12.10.2014 17:00 19,3 C 62 % 1008,7 hPa 0,0 l/m 4,0 km/h (1 Bft) O-SO 105 0 min 0,000 mm 1,0 UV-I 111 W/m 11,8 C 19,3 C 7,9 km/h (2 Bft) 0,00 %
12.10.2014 17:15 19,2 C 61 % 1008,4 hPa 0,0 l/m 0,7 km/h (0 Bft) N-NO 30 15 min 0,000 mm 1,0 UV-I 302 W/m 11,5 C 19,2 C 4,0 km/h (1 Bft) 0,00 %
12.10.2014 17:30 19,4 C 63 % 1008,6 hPa 0,0 l/m 1,4 km/h (1 Bft) O 83 15 min 0,000 mm 1,0 UV-I 152 W/m 12,2 C 19,4 C 4,0 km/h (1 Bft) 0,00 %
12.10.2014 17:45 18,9 C 63 % 1008,4 hPa 0,0 l/m 1,8 km/h (1 Bft) O-SO 111 15 min 0,000 mm 0,0 UV-I 176 W/m 11,7 C 18,9 C 4,0 km/h (1 Bft) 0,00 %
12.10.2014 18:00 18,4 C 65 % 1008,7 hPa 0,0 l/m 0,0 km/h (0 Bft) O-SO 103 15 min 0,000 mm 0,0 UV-I 57 W/m 11,7 C 18,4 C 0,0 km/h (0 Bft) 0,00 %
12.10.2014 18:15 17,8 C 66 % 1008,4 hPa 0,0 l/m 3,2 km/h (1 Bft) O 81 0 min 0,000 mm 0,0 UV-I 2 W/m 11,4 C 17,8 C 4,0 km/h (1 Bft) 0,00 %
12.10.2014 18:30 17,4 C 68 % 1008,7 hPa 0,0 l/m 4,0 km/h (1 Bft) O 94 0 min 0,000 mm 0,0 UV-I 0 W/m 11,4 C 17,4 C 4,0 km/h (1 Bft) 0,00 %
12.10.2014 18:45 17,2 C 69 % 1008,7 hPa 0,0 l/m 4,7 km/h (1 Bft) O 89 0 min 0,000 mm 0,0 UV-I 0 W/m 11,5 C 17,2 C 7,9 km/h (2 Bft) 0,00 %
12.10.2014 19:00 17,1 C 69 % 1008,8 hPa 0,0 l/m 5,8 km/h (2 Bft) O 91 0 min 0,000 mm 0,0 UV-I 0 W/m 11,4 C 17,1 C 7,9 km/h (2 Bft) 0,00 %
12.10.2014 19:15 17,0 C 69 % 1008,9 hPa 0,0 l/m 6,5 km/h (2 Bft) O 96 0 min 0,000 mm 0,0 UV-I 0 W/m 11,3 C 17,0 C 11,9 km/h (2 Bft) 0,00 %
12.10.2014 19:30 16,8 C 69 % 1008,6 hPa 0,0 l/m 2,9 km/h (1 Bft) S 169 0 min 0,000 mm 0,0 UV-I 0 W/m 11,1 C 16,8 C 7,9 km/h (2 Bft) 0,00 %
12.10.2014 19:45 16,7 C 70 % 1008,7 hPa 0,0 l/m 2,9 km/h (1 Bft) S 174 0 min 0,000 mm 0,0 UV-I 0 W/m 11,2 C 16,7 C 4,0 km/h (1 Bft) 0,00 %
12.10.2014 20:00 16,5 C 70 % 1008,7 hPa 0,0 l/m 5,4 km/h (1 Bft) O 94 0 min 0,000 mm 0,0 UV-I 0 W/m 11,0 C 16,5 C 7,9 km/h (2 Bft) 0,00 %
12.10.2014 20:15 16,3 C 72 % 1008,6 hPa 0,0 l/m 4,0 km/h (1 Bft) O 101 0 min 0,000 mm 0,0 UV-I 0 W/m 11,2 C 16,3 C 4,0 km/h (1 Bft) 0,00 %
12.10.2014 20:30 16,2 C 72 % 1008,7 hPa 0,0 l/m 11,5 km/h (2 Bft) O 101 0 min 0,000 mm 0,0 UV-I 0 W/m 11,1 C 13,8 C 11,9 km/h (2 Bft) 0,00 %
12.10.2014 20:45 16,0 C 73 % 1008,7 hPa 0,0 l/m 10,4 km/h (2 Bft) O-SO 113 0 min 0,000 mm 0,0 UV-I 0 W/m 11,2 C 14,1 C 15,8 km/h (3 Bft) 0,00 %
12.10.2014 21:00 15,9 C 73 % 1008,7 hPa 0,0 l/m 7,9 km/h (2 Bft) O 97 0 min 0,000 mm 0,0 UV-I 0 W/m 11,1 C 15,1 C 11,9 km/h (2 Bft) 0,00 %
12.10.2014 21:15 15,7 C 73 % 1008,9 hPa 0,0 l/m 0,4 km/h (0 Bft) O 85 0 min 0,000 mm 0,0 UV-I 0 W/m 10,9 C 15,7 C 4,0 km/h (1 Bft) 0,00 %
12.10.2014 21:30 15,6 C 74 % 1009,0 hPa 0,0 l/m 2,2 km/h (1 Bft) NO 47 0 min 0,000 mm 0,0 UV-I 0 W/m 11,0 C 15,6 C 4,0 km/h (1 Bft) 0,00 %
12.10.2014 21:45 15,4 C 75 % 1008,9 hPa 0,0 l/m 0,4 km/h (0 Bft) SO 127 0 min 0,000 mm 0,0 UV-I 0 W/m 11,0 C 15,4 C 4,0 km/h (1 Bft) 0,00 %
12.10.2014 22:00 15,2 C 76 % 1008,5 hPa 0,0 l/m 7,9 km/h (2 Bft) O 99 0 min 0,000 mm 0,0 UV-I 0 W/m 11,0 C 14,4 C 11,9 km/h (2 Bft) 0,00 %
12.10.2014 22:15 15,0 C 77 % 1008,5 hPa 0,0 l/m 0,4 km/h (0 Bft) O 96 0 min 0,000 mm 0,0 UV-I 0 W/m 11,0 C 15,0 C 4,0 km/h (1 Bft) 0,00 %
12.10.2014 22:30 14,8 C 78 % 1008,4 hPa 0,0 l/m 1,8 km/h (1 Bft) O-SO 111 0 min 0,000 mm 0,0 UV-I 0 W/m 11,0 C 14,8 C 4,0 km/h (1 Bft) 0,00 %
12.10.2014 22:45 14,7 C 79 % 1008,7 hPa 0,0 l/m 0,0 km/h (0 Bft) S 176 0 min 0,000 mm 0,0 UV-I 0 W/m 11,1 C 14,7 C 0,0 km/h (0 Bft) 0,00 %
12.10.2014 23:00 14,4 C 81 % 1008,4 hPa 0,0 l/m 0,0 km/h (0 Bft) S 173 0 min 0,000 mm 0,0 UV-I 0 W/m 11,2 C 14,4 C 0,0 km/h (0 Bft) 0,00 %
12.10.2014 23:15 14,2 C 81 % 1008,7 hPa 0,0 l/m 0,4 km/h (0 Bft) O-SO 109 0 min 0,000 mm 0,0 UV-I 0 W/m 11,0 C 14,2 C 4,0 km/h (1 Bft) 0,00 %
12.10.2014 23:30 14,0 C 82 % 1008,6 hPa 0,0 l/m 0,0 km/h (0 Bft) S 174 0 min 0,000 mm 0,0 UV-I 0 W/m 11,0 C 14,0 C 0,0 km/h (0 Bft) 0,00 %
12.10.2014 23:45 13,8 C 82 % 1008,5 hPa 0,0 l/m 0,0 km/h (0 Bft) S 173 0 min 0,000 mm 0,0 UV-I 0 W/m 10,8 C 13,8 C 0,0 km/h (0 Bft) 0,00 %
_ Min-Zeit 04:30 15:45 16:00 - 00:00 - - - - - - 05:15 04:30 00:00 00:00
Minimum _ 10,2 C 60 % 1008,4 hPa - 0,0 km/h (0 Bft) - - - - - - 8,2 C 10,2 C 0,0 km/h (0 Bft) 0,00 %
_ Max-Zeit 15:45 04:15 08:00 02:15 20:30 - - 12:00 00:00 12:00 15:15 14:30 16:00 15:45 00:00
Maximum _ 20,1 C 88 % 1015,6 hPa 0,3 l/m 11,5 km/h
O (2 Bft)
- - 15 min 0,000 mm 3,0 UV-I 388 W/m 13,2 C 20,1 C 15,8 km/h
O-SO (3 Bft)
0,00 %
Durchschnitt _ 14,5 C 79 % 1012,1 hPa #0,3 l/m 2,2 km/h (1 Bft) O - #3:00 h #0,000 mm 1,6 UV-I 157 W/m 10,7 C 14,4 C 3,7 km/h (1 Bft) 0,00 %